Time;durP1;ratioP1;P1;durP2;ratioP2;P2;SDS_P1;SDS_P2;PMS_P1;PMS_P2;Temp;Humidity;BMP_temperature;BMP_pressure;BME280_temperature;BME280_humidity;BME280_pressure;Samples;Min_cycle;Max_cycle;Signal;HPM_P1;HPM_P2
2022/05/03 00:00:15;;;;;;;8.60;5.10;;;;;;;;;;5096624;28;20079;-65
2022/05/03 00:03:00;;;;;;;8.43;5.43;;;;;;;;;;5085550;28;20044;-66
2022/05/03 00:05:32;;;;;;;17.02;6.55;;;;;;;;;;5079935;28;20091;-65
2022/05/03 00:08:04;;;;;;;11.93;6.05;;;;;;;;;;5076016;28;20515;-66
2022/05/03 00:10:36;;;;;;;10.30;5.80;;;;;;;;;;5075675;28;20040;-65
2022/05/03 00:13:09;;;;;;;14.70;6.10;;;;;;;;;;5084637;28;20036;-65
2022/05/03 00:15:36;;;;;;;11.80;5.07;;;;;;;;;;5077979;28;20086;-66
2022/05/03 00:18:03;;;;;;;15.02;5.63;;;;;;;;;;5078921;28;20177;-66
2022/05/03 00:20:29;;;;;;;8.90;4.75;;;;;;;;;;5091261;28;20047;-66
2022/05/03 00:22:56;;;;;;;7.68;4.88;;;;;;;;;;5094540;28;20036;-66
2022/05/03 00:25:22;;;;;;;9.82;5.10;;;;;;;;;;5081979;28;20499;-66
2022/05/03 00:27:48;;;;;;;9.50;5.60;;;;;;;;;;5093701;28;20048;-65
2022/05/03 00:30:14;;;;;;;8.02;5.15;;;;;;;;;;5078332;28;20036;-65
2022/05/03 00:32:40;;;;;;;9.60;5.15;;;;;;;;;;5090601;28;20040;-65
2022/05/03 00:35:07;;;;;;;10.20;5.00;;;;;;;;;;5093992;28;20036;-65
2022/05/03 00:37:33;;;;;;;9.13;4.55;;;;;;;;;;5081718;28;20044;-65
2022/05/03 00:39:59;;;;;;;9.90;5.47;;;;;;;;;;5090835;28;20043;-66
2022/05/03 00:42:57;;;;;;;9.98;5.20;;;;;;;;;;5081254;28;20119;-65
2022/05/03 00:45:26;;;;;;;10.77;5.60;;;;;;;;;;5080021;28;20047;-65
2022/05/03 00:48:03;;;;;;;8.70;4.85;;;;;;;;;;5092928;28;20048;-65
2022/05/03 00:50:29;;;;;;;7.38;4.97;;;;;;;;;;5086483;28;20764;-65
2022/05/03 00:53:02;;;;;;;8.15;5.43;;;;;;;;;;5089631;28;20040;-65
2022/05/03 00:55:46;;;;;;;8.68;5.32;;;;;;;;;;5082882;28;20076;-65
2022/05/03 00:58:15;;;;;;;8.13;5.50;;;;;;;;;;5086100;28;20032;-65
2022/05/03 01:00:41;;;;;;;;;;;;;;;;;;5096064;28;20051;-65
2022/05/03 01:03:10;;;;;;;8.80;4.88;;;;;;;;;;5090611;28;20282;-66
2022/05/03 01:05:54;;;;;;;10.68;5.38;;;;;;;;;;5086406;28;20087;-65
2022/05/03 01:08:37;;;;;;;10.95;5.25;;;;;;;;;;5076305;28;20131;-66
2022/05/03 01:11:13;;;;;;;9.65;5.57;;;;;;;;;;5075406;28;20075;-66
2022/05/03 01:13:46;;;;;;;9.07;5.30;;;;;;;;;;5078048;28;20055;-66
2022/05/03 01:16:18;;;;;;;11.15;6.55;;;;;;;;;;5090146;28;20082;-66
2022/05/03 01:19:01;;;;;;;11.57;5.78;;;;;;;;;;5084701;28;20044;-65
2022/05/03 01:21:33;;;;;;;9.93;5.10;;;;;;;;;;5074628;28;20044;-65
2022/05/03 01:24:11;;;;;;;9.60;5.75;;;;;;;;;;5077569;28;20040;-65
2022/05/03 01:26:55;;;;;;;9.68;5.75;;;;;;;;;;5076825;28;20052;-66
2022/05/03 01:29:27;;;;;;;8.45;5.47;;;;;;;;;;5091909;28;20114;-66
2022/05/03 01:31:56;;;;;;;8.55;5.60;;;;;;;;;;5093292;28;20399;-65
2022/05/03 01:34:23;;;;;;;7.82;5.00;;;;;;;;;;5073824;28;20041;-65
2022/05/03 01:36:58;;;;;;;8.85;5.85;;;;;;;;;;5082039;28;20055;-66
2022/05/03 01:39:42;;;;;;;10.52;5.63;;;;;;;;;;5083043;28;20087;-65
2022/05/03 01:42:26;;;;;;;16.85;5.82;;;;;;;;;;5084221;28;20739;-66
2022/05/03 01:45:02;;;;;;;36.65;7.45;;;;;;;;;;5093711;28;20079;-66
2022/05/03 01:47:31;;;;;;;10.57;6.15;;;;;;;;;;5085670;28;20143;-66
2022/05/03 01:50:19;;;;;;;10.70;6.22;;;;;;;;;;5074754;28;20048;-64
2022/05/03 01:53:05;;;;;;;11.68;5.43;;;;;;;;;;5075967;28;20054;-65
2022/05/03 01:55:30;;;;;;;10.02;5.25;;;;;;;;;;5085516;28;20083;-65
2022/05/03 01:58:03;;;;;;;16.30;5.47;;;;;;;;;;5093520;28;20078;-65
2022/05/03 02:00:30;;;;;;;11.40;5.53;;;;;;;;;;5083739;28;20066;-66
2022/05/03 02:03:02;;;;;;;8.65;6.10;;;;;;;;;;5092101;28;20429;-66
2022/05/03 02:05:47;;;;;;;10.05;6.07;;;;;;;;;;5085012;28;20044;-65
2022/05/03 02:08:18;;;;;;;10.13;6.35;;;;;;;;;;5076607;28;20158;-66
2022/05/03 02:10:53;;;;;;;11.07;5.90;;;;;;;;;;5072941;28;20158;-65
2022/05/03 02:13:19;;;;;;;12.00;5.30;;;;;;;;;;5088153;28;20071;-65
2022/05/03 02:15:49;;;;;;;11.88;6.22;;;;;;;;;;5089331;28;20124;-65
2022/05/03 02:18:23;;;;;;;9.73;5.90;;;;;;;;;;5088964;28;20037;-65
2022/05/03 02:20:52;;;;;;;15.18;6.78;;;;;;;;;;5075923;28;20051;-66
2022/05/03 02:23:25;;;;;;;13.15;6.28;;;;;;;;;;5076877;28;20116;-66
2022/05/03 02:25:57;;;;;;;9.90;5.78;;;;;;;;;;5086092;28;20059;-66
2022/05/03 02:28:26;;;;;;;11.60;6.05;;;;;;;;;;5089085;28;20440;-65
2022/05/03 02:30:53;;;;;;;9.43;5.47;;;;;;;;;;5091645;28;20048;-64
2022/05/03 02:33:21;;;;;;;9.63;5.97;;;;;;;;;;5090917;28;20395;-64
2022/05/03 02:35:50;;;;;;;12.88;6.50;;;;;;;;;;5082381;28;20395;-66
2022/05/03 02:38:20;;;;;;;15.00;6.80;;;;;;;;;;5087873;28;20037;-67
2022/05/03 02:40:50;;;;;;;12.60;6.38;;;;;;;;;;5072823;28;20082;-67
2022/05/03 02:43:17;;;;;;;9.73;5.78;;;;;;;;;;5092944;28;20040;-66
2022/05/03 02:45:50;;;;;;;12.52;6.80;;;;;;;;;;5090189;28;20036;-66
2022/05/03 02:48:28;;;;;;;10.00;6.00;;;;;;;;;;5078399;28;20127;-67
2022/05/03 02:50:57;;;;;;;13.43;7.07;;;;;;;;;;5086764;28;20048;-66
2022/05/03 02:53:23;;;;;;;;;;;;;;;;;;5093437;28;20289;-66
2022/05/03 02:55:54;;;;;;;10.65;6.38;;;;;;;;;;5088117;28;20344;-66
2022/05/03 02:58:32;;;;;;;12.52;6.65;;;;;;;;;;5091694;28;20055;-65
2022/05/03 03:04:04;;;;;;;10.95;6.25;;;;;;;;;;5091803;28;20083;-66
2022/05/03 03:06:34;;;;;;;16.23;6.78;;;;;;;;;;5083082;28;20048;-66
2022/05/03 03:09:01;;;;;;;11.43;6.68;;;;;;;;;;5081639;28;20044;-66
2022/05/03 03:11:41;;;;;;;11.27;6.50;;;;;;;;;;5078599;28;20394;-67
2022/05/03 03:14:19;;;;;;;13.85;7.20;;;;;;;;;;5084233;28;20044;-68
2022/05/03 03:17:00;;;;;;;12.95;7.70;;;;;;;;;;5079532;28;20044;-66
2022/05/03 03:19:33;;;;;;;21.48;9.25;;;;;;;;;;5084228;28;20084;-66
2022/05/03 03:22:01;;;;;;;26.63;9.60;;;;;;;;;;5084264;28;20052;-66
2022/05/03 03:24:29;;;;;;;25.67;9.38;;;;;;;;;;5092332;28;20056;-66
2022/05/03 03:26:57;;;;;;;20.58;8.00;;;;;;;;;;5090785;28;20532;-66
2022/05/03 03:29:24;;;;;;;15.02;7.57;;;;;;;;;;5085466;28;20089;-66
2022/05/03 03:31:51;;;;;;;16.77;7.25;;;;;;;;;;5085855;28;20072;-66
2022/05/03 03:34:19;;;;;;;23.23;8.88;;;;;;;;;;5080959;28;20495;-66
2022/05/03 03:36:47;;;;;;;35.47;10.23;;;;;;;;;;5080095;28;20406;-67
2022/05/03 03:39:14;;;;;;;34.53;11.45;;;;;;;;;;5080228;28;20036;-66
2022/05/03 03:41:40;;;;;;;22.73;8.45;;;;;;;;;;5080740;28;20122;-66
2022/05/03 03:44:06;;;;;;;20.17;8.90;;;;;;;;;;5084530;28;20033;-66
2022/05/03 03:46:33;;;;;;;26.95;9.60;;;;;;;;;;5076931;28;20049;-65
2022/05/03 03:48:59;;;;;;;24.55;9.45;;;;;;;;;;5075410;28;20049;-66
2022/05/03 03:51:25;;;;;;;24.35;10.10;;;;;;;;;;5077197;28;20048;-66
2022/05/03 03:53:52;;;;;;;24.55;10.18;;;;;;;;;;5081599;28;20123;-66
2022/05/03 03:56:19;;;;;;;35.33;10.48;;;;;;;;;;5089760;28;20487;-66
2022/05/03 03:58:45;;;;;;;41.30;11.93;;;;;;;;;;5075599;28;20449;-65
2022/05/03 04:01:11;;;;;;;33.25;10.70;;;;;;;;;;5080774;28;20560;-66
2022/05/03 04:03:38;;;;;;;30.88;10.73;;;;;;;;;;5078614;28;20040;-66
2022/05/03 04:06:04;;;;;;;30.08;9.98;;;;;;;;;;5088415;28;20055;-66
2022/05/03 04:08:31;;;;;;;35.88;11.63;;;;;;;;;;5079763;28;20068;-66
2022/05/03 04:10:57;;;;;;;43.72;11.82;;;;;;;;;;5073619;28;20044;-66
2022/05/03 04:13:23;;;;;;;19.63;8.50;;;;;;;;;;5082922;28;20051;-66
2022/05/03 04:15:53;;;;;;;42.55;12.07;;;;;;;;;;5081899;28;20127;-66
2022/05/03 04:18:19;;;;;;;51.30;14.05;;;;;;;;;;5082677;28;20036;-66
2022/05/03 04:20:45;;;;;;;24.42;11.05;;;;;;;;;;5073814;28;20045;-66
2022/05/03 04:23:20;;;;;;;60.53;18.70;;;;;;;;;;5081127;28;20032;-66
2022/05/03 04:25:46;;;;;;;41.83;13.48;;;;;;;;;;5077461;28;20052;-66
2022/05/03 04:28:12;;;;;;;50.35;13.35;;;;;;;;;;5071445;28;20045;-66
2022/05/03 04:30:38;;;;;;;63.70;15.82;;;;;;;;;;5071717;28;20496;-66
2022/05/03 04:33:04;;;;;;;67.18;20.73;;;;;;;;;;5074503;28;20041;-66
2022/05/03 04:35:30;;;;;;;62.65;18.55;;;;;;;;;;5086694;28;20040;-66
2022/05/03 04:37:56;;;;;;;84.07;21.27;;;;;;;;;;5081082;28;20499;-66
2022/05/03 04:40:22;;;;;;;84.50;22.08;;;;;;;;;;5085888;28;20040;-66
2022/05/03 04:42:48;;;;;;;122.32;30.67;;;;;;;;;;5080889;28;20094;-66
2022/05/03 04:45:14;;;;;;;142.55;31.70;;;;;;;;;;5084285;28;20131;-66
2022/05/03 04:47:40;;;;;;;29.98;13.68;;;;;;;;;;5095659;28;20085;-66
2022/05/03 04:50:06;;;;;;;23.13;11.60;;;;;;;;;;5082276;28;20037;-66
2022/05/03 04:52:32;;;;;;;26.35;13.68;;;;;;;;;;5085543;28;20048;-66
2022/05/03 04:54:58;;;;;;;27.20;12.68;;;;;;;;;;5094507;28;20100;-66
2022/05/03 04:57:24;;;;;;;17.75;10.57;;;;;;;;;;5092023;28;20048;-66
2022/05/03 04:59:50;;;;;;;27.00;13.07;;;;;;;;;;5085765;28;20040;-65
2022/05/03 05:02:16;;;;;;;31.10;12.98;;;;;;;;;;5093658;28;20044;-66
2022/05/03 05:04:42;;;;;;;36.63;15.35;;;;;;;;;;5095135;28;20044;-65
2022/05/03 05:07:10;;;;;;;21.48;12.45;;;;;;;;;;5084832;28;20047;-65
2022/05/03 05:09:36;;;;;;;30.63;14.85;;;;;;;;;;5091021;28;20135;-66
2022/05/03 05:12:02;;;;;;;25.40;15.63;;;;;;;;;;5089617;28;20167;-66
2022/05/03 05:14:27;;;;;;;36.22;16.40;;;;;;;;;;5091427;28;20051;-66
2022/05/03 05:16:53;;;;;;;32.13;13.02;;;;;;;;;;5087944;28;20040;-67
2022/05/03 05:19:20;;;;;;;26.95;15.05;;;;;;;;;;5091158;28;20121;-66
2022/05/03 05:21:46;;;;;;;31.08;14.57;;;;;;;;;;5089328;28;20040;-66
2022/05/03 05:24:13;;;;;;;29.25;14.77;;;;;;;;;;5085680;28;20083;-66
2022/05/03 05:26:41;;;;;;;46.50;17.95;;;;;;;;;;5077416;28;20514;-66
2022/05/03 05:29:07;;;;;;;24.50;13.55;;;;;;;;;;5087789;28;20442;-66
2022/05/03 05:31:34;;;;;;;22.33;13.40;;;;;;;;;;5077684;28;20036;-67
2022/05/03 05:34:00;;;;;;;24.50;14.98;;;;;;;;;;5094392;28;20090;-66
2022/05/03 05:36:27;;;;;;;27.75;16.02;;;;;;;;;;5087326;28;20036;-67
2022/05/03 05:38:53;;;;;;;23.67;14.98;;;;;;;;;;5085667;28;20084;-67
2022/05/03 05:41:19;;;;;;;23.08;13.70;;;;;;;;;;5087784;28;20051;-67
2022/05/03 05:43:47;;;;;;;22.27;13.18;;;;;;;;;;5084984;28;20058;-67
2022/05/03 05:46:14;;;;;;;24.52;16.05;;;;;;;;;;5089899;28;20120;-67
2022/05/03 05:48:40;;;;;;;25.17;15.93;;;;;;;;;;5088852;28;20114;-67
2022/05/03 05:51:06;;;;;;;23.67;15.38;;;;;;;;;;5089662;28;20123;-66
2022/05/03 05:53:32;;;;;;;25.60;17.48;;;;;;;;;;5086282;28;20487;-66
2022/05/03 05:55:58;;;;;;;28.02;17.55;;;;;;;;;;5090651;28;20036;-66
2022/05/03 05:58:24;;;;;;;28.55;18.77;;;;;;;;;;5086182;28;21067;-66
2022/05/03 06:00:50;;;;;;;28.35;18.77;;;;;;;;;;5089804;28;20047;-66
2022/05/03 06:03:17;;;;;;;32.70;18.73;;;;;;;;;;5087177;28;20036;-66
2022/05/03 06:05:43;;;;;;;31.65;19.38;;;;;;;;;;5088900;28;20074;-66
2022/05/03 06:08:09;;;;;;;31.23;19.40;;;;;;;;;;5086400;28;20123;-66
2022/05/03 06:10:36;;;;;;;36.80;19.88;;;;;;;;;;5091215;28;20058;-66
2022/05/03 06:13:02;;;;;;;32.70;21.38;;;;;;;;;;5089277;28;20044;-66
2022/05/03 06:15:29;;;;;;;38.53;22.38;;;;;;;;;;5078370;28;20045;-66
2022/05/03 06:17:55;;;;;;;35.70;22.92;;;;;;;;;;5082148;28;20134;-67
2022/05/03 06:20:21;;;;;;;34.88;22.30;;;;;;;;;;5093909;28;20036;-66
2022/05/03 06:22:46;;;;;;;38.17;24.48;;;;;;;;;;5090564;28;20051;-66
2022/05/03 06:25:12;;;;;;;42.38;24.65;;;;;;;;;;5078467;28;20056;-66
2022/05/03 06:27:39;;;;;;;44.38;26.33;;;;;;;;;;5078075;28;20124;-66
2022/05/03 06:30:06;;;;;;;50.97;28.80;;;;;;;;;;5080866;28;20036;-66
2022/05/03 06:32:32;;;;;;;44.45;26.60;;;;;;;;;;5089456;28;20495;-67
2022/05/03 06:34:58;;;;;;;59.38;29.52;;;;;;;;;;5087830;28;20576;-66
2022/05/03 06:37:24;;;;;;;51.75;28.20;;;;;;;;;;5087453;28;20049;-66
2022/05/03 06:39:49;;;;;;;40.40;25.85;;;;;;;;;;5090651;28;20406;-67
2022/05/03 06:42:19;;;;;;;52.25;29.67;;;;;;;;;;5088870;28;20028;-67
2022/05/03 06:44:46;;;;;;;51.20;28.77;;;;;;;;;;5087757;28;20062;-67
2022/05/03 06:47:12;;;;;;;51.38;27.40;;;;;;;;;;5077977;28;20044;-67
2022/05/03 06:49:38;;;;;;;50.08;29.05;;;;;;;;;;5078170;28;20054;-67
2022/05/03 06:52:04;;;;;;;45.08;27.48;;;;;;;;;;5085210;28;20045;-67
2022/05/03 06:54:30;;;;;;;55.05;27.80;;;;;;;;;;5075595;28;20037;-66
2022/05/03 06:56:56;;;;;;;49.50;27.10;;;;;;;;;;5090098;28;20328;-66
2022/05/03 06:59:22;;;;;;;54.20;28.85;;;;;;;;;;5083600;28;20124;-67
2022/05/03 07:01:48;;;;;;;45.67;27.52;;;;;;;;;;5091707;28;20405;-66
2022/05/03 07:04:14;;;;;;;47.67;28.00;;;;;;;;;;5079281;28;20048;-67
2022/05/03 07:06:40;;;;;;;47.22;26.80;;;;;;;;;;5092085;28;20126;-67
2022/05/03 07:09:06;;;;;;;58.78;27.98;;;;;;;;;;5078422;28;20564;-67
2022/05/03 07:11:32;;;;;;;79.22;32.22;;;;;;;;;;5081401;28;20044;-66
2022/05/03 07:13:58;;;;;;;43.42;23.40;;;;;;;;;;5092946;28;20123;-67
2022/05/03 07:16:24;;;;;;;46.95;25.85;;;;;;;;;;5091595;28;20477;-66
2022/05/03 07:24:19;;;;;;;59.80;26.77;;;;;;;;;;5092759;28;20080;-67
2022/05/03 07:26:45;;;;;;;46.15;24.65;;;;;;;;;;5080226;28;20084;-66
2022/05/03 07:29:12;;;;;;;44.70;23.73;;;;;;;;;;5083242;28;20095;-67
2022/05/03 07:31:41;;;;;;;50.70;24.17;;;;;;;;;;5086652;28;20051;-67
2022/05/03 07:34:08;;;;;;;37.35;21.88;;;;;;;;;;5084358;28;20048;-67
2022/05/03 07:36:34;;;;;;;58.92;25.60;;;;;;;;;;5076225;28;20076;-67
2022/05/03 07:39:00;;;;;;;40.13;23.58;;;;;;;;;;5087763;28;20478;-67
2022/05/03 07:41:26;;;;;;;38.55;22.52;;;;;;;;;;5084997;28;20051;-67
2022/05/03 07:43:52;;;;;;;45.00;22.58;;;;;;;;;;5092239;28;20044;-67
2022/05/03 07:46:18;;;;;;;38.17;23.52;;;;;;;;;;5091610;28;20051;-67
2022/05/03 07:48:44;;;;;;;40.20;23.45;;;;;;;;;;5086456;28;20047;-67
2022/05/03 07:51:13;;;;;;;49.83;27.08;;;;;;;;;;5096517;28;20483;-67
2022/05/03 07:53:42;;;;;;;50.78;26.85;;;;;;;;;;5079019;28;20036;-67
2022/05/03 07:56:10;;;;;;;45.45;25.10;;;;;;;;;;5105331;28;20036;-67
2022/05/03 07:58:36;;;;;;;62.00;30.57;;;;;;;;;;5086879;28;20045;-67
2022/05/03 08:01:03;;;;;;;55.63;28.15;;;;;;;;;;5083580;28;20285;-67
2022/05/03 08:03:29;;;;;;;51.88;26.95;;;;;;;;;;5086152;28;20483;-67
2022/05/03 08:05:54;;;;;;;52.55;27.70;;;;;;;;;;5088667;28;20242;-67
2022/05/03 08:08:20;;;;;;;54.80;27.17;;;;;;;;;;5077466;28;20042;-67
2022/05/03 08:10:47;;;;;;;53.97;26.50;;;;;;;;;;5076440;28;20049;-67
2022/05/03 08:13:13;;;;;;;51.22;27.15;;;;;;;;;;5092238;28;20044;-67
2022/05/03 08:15:39;;;;;;;62.03;29.88;;;;;;;;;;5095510;28;20372;-67
2022/05/03 08:18:06;;;;;;;61.70;29.17;;;;;;;;;;5095138;28;20085;-66
2022/05/03 08:20:32;;;;;;;63.63;30.00;;;;;;;;;;5094808;28;20048;-66
2022/05/03 08:22:59;;;;;;;58.38;29.38;;;;;;;;;;5095183;28;20512;-67
2022/05/03 08:25:25;;;;;;;53.20;28.60;;;;;;;;;;5095131;28;20048;-67
2022/05/03 08:27:51;;;;;;;60.22;28.27;;;;;;;;;;5095101;28;20040;-67
2022/05/03 08:30:17;;;;;;;50.80;28.13;;;;;;;;;;5093955;28;20051;-67
2022/05/03 08:32:43;;;;;;;86.25;33.08;;;;;;;;;;5079485;28;20468;-66
2022/05/03 08:35:09;;;;;;;51.25;27.63;;;;;;;;;;5089926;28;20072;-66
2022/05/03 08:43:07;;;;;;;42.05;23.30;;;;;;;;;;5091755;28;20048;-67
2022/05/03 08:45:34;;;;;;;38.85;22.92;;;;;;;;;;5094609;28;20084;-67
2022/05/03 08:48:01;;;;;;;38.00;22.70;;;;;;;;;;5088100;28;20052;-67
2022/05/03 08:50:27;;;;;;;43.03;21.02;;;;;;;;;;5085359;28;20147;-67
2022/05/03 08:53:05;;;;;;;42.03;22.02;;;;;;;;;;5102282;28;20048;-67
2022/05/03 08:55:31;;;;;;;;;;;;;;;;;;5091351;28;20044;-67
2022/05/03 08:57:58;;;;;;;33.72;18.45;;;;;;;;;;5090785;28;19928;-67
2022/05/03 09:00:25;;;;;;;29.90;17.65;;;;;;;;;;5089483;28;20056;-66
2022/05/03 09:02:53;;;;;;;41.35;18.85;;;;;;;;;;5089276;28;20044;-67
2022/05/03 09:05:19;;;;;;;25.48;14.95;;;;;;;;;;5081788;28;20055;-66
2022/05/03 09:07:48;;;;;;;24.42;14.05;;;;;;;;;;5085091;28;20763;-66
2022/05/03 09:10:21;;;;;;;21.23;12.13;;;;;;;;;;5089397;28;20491;-67
2022/05/03 09:12:48;;;;;;;22.52;11.32;;;;;;;;;;5074062;28;20123;-66
2022/05/03 09:15:14;;;;;;;15.30;9.02;;;;;;;;;;5085927;28;20086;-66
2022/05/03 09:17:44;;;;;;;22.17;9.88;;;;;;;;;;5075172;28;20068;-67
2022/05/03 09:25:47;;;;;;;13.23;7.35;;;;;;;;;;5087153;28;20450;-67
2022/05/03 09:28:13;;;;;;;12.10;6.82;;;;;;;;;;5087078;28;20041;-67
2022/05/03 09:30:47;;;;;;;13.98;7.63;;;;;;;;;;5074170;28;20102;-67
2022/05/03 09:33:16;;;;;;;17.33;6.97;;;;;;;;;;5081292;28;20041;-66
2022/05/03 09:35:42;;;;;;;19.08;8.10;;;;;;;;;;5087261;28;20127;-67
2022/05/03 09:38:08;;;;;;;15.80;7.70;;;;;;;;;;5084640;28;20068;-66
2022/05/03 09:40:45;;;;;;;16.90;7.25;;;;;;;;;;5088464;28;20085;-67
2022/05/03 09:43:12;;;;;;;13.85;7.30;;;;;;;;;;5092317;28;20044;-67
2022/05/03 09:45:38;;;;;;;16.35;7.32;;;;;;;;;;5087804;28;20033;-67
2022/05/03 09:48:05;;;;;;;24.20;8.63;;;;;;;;;;5087141;28;20043;-66
2022/05/03 09:50:38;;;;;;;20.35;8.40;;;;;;;;;;5090871;28;20044;-66
2022/05/03 09:53:15;;;;;;;12.63;7.38;;;;;;;;;;5089309;28;20127;-66
2022/05/03 09:55:42;;;;;;;16.75;7.35;;;;;;;;;;5088153;28;20384;-66
2022/05/03 09:58:09;;;;;;;14.23;7.25;;;;;;;;;;5074074;28;20056;-67
2022/05/03 10:00:36;;;;;;;18.75;8.30;;;;;;;;;;5081875;28;20071;-67
2022/05/03 10:03:03;;;;;;;18.15;7.50;;;;;;;;;;5085311;28;20187;-66
2022/05/03 10:05:30;;;;;;;24.75;8.65;;;;;;;;;;5088698;28;20106;-67
2022/05/03 10:07:56;;;;;;;18.45;7.95;;;;;;;;;;5091524;28;20044;-67
2022/05/03 10:10:24;;;;;;;17.73;7.78;;;;;;;;;;5087206;28;20039;-68
2022/05/03 10:12:51;;;;;;;17.83;8.23;;;;;;;;;;5090670;28;20040;-66
2022/05/03 10:21:03;;;;;;;16.27;7.03;;;;;;;;;;5089077;28;20134;-67
2022/05/03 10:23:33;;;;;;;16.45;7.90;;;;;;;;;;5097479;28;20495;-66
2022/05/03 10:26:00;;;;;;;19.80;7.53;;;;;;;;;;5087372;28;20052;-67
2022/05/03 10:28:47;;;;;;;26.08;8.40;;;;;;;;;;5085997;28;20059;-66
2022/05/03 10:31:13;;;;;;;23.60;7.70;;;;;;;;;;5089199;28;20036;-67
2022/05/03 10:33:40;;;;;;;18.83;7.60;;;;;;;;;;5081723;28;20486;-66
2022/05/03 10:36:26;;;;;;;18.30;7.07;;;;;;;;;;5077268;28;20467;-66
2022/05/03 10:38:52;;;;;;;20.80;6.80;;;;;;;;;;5083642;28;20079;-66
2022/05/03 10:41:24;;;;;;;22.30;7.03;;;;;;;;;;5107164;28;20044;-67
2022/05/03 10:43:50;;;;;;;18.77;6.55;;;;;;;;;;5084684;28;20040;-67
2022/05/03 10:46:20;;;;;;;18.55;7.47;;;;;;;;;;5091271;28;20048;-66
2022/05/03 10:49:04;;;;;;;19.90;6.85;;;;;;;;;;5091459;28;20581;-66
2022/05/03 10:51:30;;;;;;;24.33;7.68;;;;;;;;;;5090485;28;20040;-66
2022/05/03 10:53:59;;;;;;;25.65;7.47;;;;;;;;;;5090018;28;20040;-67
2022/05/03 10:56:26;;;;;;;20.17;7.50;;;;;;;;;;5090609;28;20448;-67
2022/05/03 10:59:15;;;;;;;20.35;7.05;;;;;;;;;;5090450;28;20376;-66
2022/05/03 11:01:56;;;;;;;15.40;6.30;;;;;;;;;;5079349;28;20044;-67
2022/05/03 11:04:24;;;;;;;16.67;6.30;;;;;;;;;;5087678;28;20123;-67
2022/05/03 11:06:50;;;;;;;21.75;6.72;;;;;;;;;;5084463;28;20064;-67
2022/05/03 11:09:25;;;;;;;22.17;6.50;;;;;;;;;;5086489;28;20075;-67
2022/05/03 11:11:52;;;;;;;16.50;6.40;;;;;;;;;;5086291;28;20045;-66
2022/05/03 11:14:38;;;;;;;19.33;5.85;;;;;;;;;;5089110;28;20044;-66
2022/05/03 11:17:04;;;;;;;38.53;9.18;;;;;;;;;;5093119;28;20044;-66
2022/05/03 11:19:50;;;;;;;17.58;6.32;;;;;;;;;;5089728;28;20044;-66
2022/05/03 11:22:18;;;;;;;25.52;7.68;;;;;;;;;;5076217;28;20085;-66
2022/05/03 11:24:45;;;;;;;16.63;6.25;;;;;;;;;;5092671;28;20036;-67
2022/05/03 11:27:11;;;;;;;18.52;7.45;;;;;;;;;;5090595;28;20491;-67
2022/05/03 11:29:47;;;;;;;14.07;6.40;;;;;;;;;;5080290;28;20040;-66
2022/05/03 11:32:15;;;;;;;15.40;6.63;;;;;;;;;;5072150;28;20040;-66
2022/05/03 11:34:41;;;;;;;15.20;6.10;;;;;;;;;;5072510;28;20053;-66
2022/05/03 11:37:07;;;;;;;13.68;5.47;;;;;;;;;;5080638;28;20066;-66
2022/05/03 11:39:36;;;;;;;16.17;5.57;;;;;;;;;;5092755;28;20054;-66
2022/05/03 11:42:02;;;;;;;13.60;5.32;;;;;;;;;;5079152;28;20045;-66
2022/05/03 11:44:28;;;;;;;16.88;5.32;;;;;;;;;;5079875;28;20089;-66
2022/05/03 11:46:54;;;;;;;15.20;4.70;;;;;;;;;;5085477;28;20071;-66
2022/05/03 11:49:21;;;;;;;13.40;5.18;;;;;;;;;;5108724;28;20040;-66
2022/05/03 11:57:24;;;;;;;15.25;4.97;;;;;;;;;;5085321;28;20044;-67
2022/05/03 11:59:51;;;;;;;13.45;4.85;;;;;;;;;;5095869;28;20044;-67
2022/05/03 12:02:19;;;;;;;13.75;4.50;;;;;;;;;;5091086;28;20035;-66
2022/05/03 12:04:45;;;;;;;;;;;;;;;;;;5082432;28;20132;-67
2022/05/03 12:07:11;;;;;;;11.10;3.92;;;;;;;;;;5087452;28;19976;-66
2022/05/03 12:09:37;;;;;;;9.02;4.18;;;;;;;;;;5089475;28;20088;-67
2022/05/03 12:14:48;;;;;;;15.20;4.07;;;;;;;;;;5085556;28;20479;-67
2022/05/03 12:17:14;;;;;;;16.55;4.85;;;;;;;;;;5086079;28;20089;-67
2022/05/03 12:19:40;;;;;;;10.23;4.35;;;;;;;;;;5093203;28;20044;-67
2022/05/03 12:22:15;;;;;;;12.18;4.15;;;;;;;;;;5082719;28;20444;-67
2022/05/03 12:24:42;;;;;;;12.90;3.70;;;;;;;;;;5088691;28;20056;-67
2022/05/03 12:27:11;;;;;;;13.75;3.63;;;;;;;;;;5086411;28;20407;-67
2022/05/03 12:29:42;;;;;;;12.68;4.30;;;;;;;;;;5094077;28;20044;-67
2022/05/03 12:32:15;;;;;;;11.23;4.22;;;;;;;;;;5086098;28;20033;-66
2022/05/03 12:34:42;;;;;;;9.88;3.70;;;;;;;;;;5082035;28;20499;-67
2022/05/03 12:37:09;;;;;;;12.30;4.47;;;;;;;;;;5092728;28;20040;-67
2022/05/03 12:39:38;;;;;;;8.30;3.90;;;;;;;;;;5087516;28;20410;-67
2022/05/03 12:42:15;;;;;;;11.98;3.75;;;;;;;;;;5088673;28;20066;-67
2022/05/03 12:44:51;;;;;;;11.20;4.32;;;;;;;;;;5092323;28;20050;-67
2022/05/03 12:47:17;;;;;;;10.75;3.45;;;;;;;;;;5093399;28;20127;-67
2022/05/03 12:49:43;;;;;;;11.30;3.92;;;;;;;;;;5092945;28;20127;-67
2022/05/03 12:52:09;;;;;;;15.75;3.70;;;;;;;;;;5086420;28;20521;-66
2022/05/03 12:54:42;;;;;;;16.90;4.30;;;;;;;;;;5093458;28;20561;-66
2022/05/03 12:59:54;;;;;;;8.90;4.13;;;;;;;;;;5085812;28;20048;-67
2022/05/03 13:02:20;;;;;;;12.55;3.45;;;;;;;;;;5090195;28;20067;-67
2022/05/03 13:04:47;;;;;;;10.38;4.25;;;;;;;;;;5087670;28;20554;-67
2022/05/03 13:07:13;;;;;;;12.60;3.75;;;;;;;;;;5089645;28;20511;-67
2022/05/03 13:09:39;;;;;;;19.05;5.07;;;;;;;;;;5089036;28;20074;-67
2022/05/03 13:12:05;;;;;;;13.43;3.90;;;;;;;;;;5078714;28;20154;-67
2022/05/03 13:14:31;;;;;;;9.60;3.63;;;;;;;;;;5090383;28;20115;-67
2022/05/03 13:16:58;;;;;;;12.93;4.20;;;;;;;;;;5082852;28;20047;-67
2022/05/03 13:19:25;;;;;;;12.93;4.32;;;;;;;;;;5078342;28;20048;-67
2022/05/03 13:21:54;;;;;;;13.38;3.75;;;;;;;;;;5075382;28;20491;-69
2022/05/03 13:24:20;;;;;;;9.55;3.70;;;;;;;;;;5085645;28;20084;-67
2022/05/03 13:26:46;;;;;;;7.95;3.17;;;;;;;;;;5090056;28;20056;-67
2022/05/03 13:29:15;;;;;;;7.68;3.00;;;;;;;;;;5078948;28;20178;-67
2022/05/03 13:31:41;;;;;;;11.52;3.63;;;;;;;;;;5085471;28;20511;-67
2022/05/03 13:34:08;;;;;;;10.57;3.25;;;;;;;;;;5088101;28;20155;-67
2022/05/03 13:42:03;;;;;;;12.82;3.75;;;;;;;;;;5084941;28;20040;-67
2022/05/03 13:44:29;;;;;;;14.50;4.68;;;;;;;;;;5093125;28;20044;-68
2022/05/03 13:46:58;;;;;;;13.20;4.63;;;;;;;;;;5079951;28;20385;-67
2022/05/03 13:49:24;;;;;;;7.45;2.80;;;;;;;;;;5085232;28;20048;-68
2022/05/03 13:51:50;;;;;;;14.13;4.68;;;;;;;;;;5082582;28;20048;-67
2022/05/03 13:54:16;;;;;;;9.23;3.28;;;;;;;;;;5081404;28;20399;-68
2022/05/03 13:56:42;;;;;;;13.25;3.50;;;;;;;;;;5085832;28;20662;-68
2022/05/03 13:59:08;;;;;;;14.93;4.35;;;;;;;;;;5087486;28;20039;-67
2022/05/03 14:01:34;;;;;;;9.27;3.20;;;;;;;;;;5085143;28;20040;-65
2022/05/03 14:04:02;;;;;;;10.05;3.05;;;;;;;;;;5085203;28;20040;-67
2022/05/03 14:06:28;;;;;;;8.50;2.78;;;;;;;;;;5077771;28;20410;-67
2022/05/03 14:08:54;;;;;;;8.35;2.58;;;;;;;;;;5073328;28;20067;-68
2022/05/03 14:11:21;;;;;;;13.73;4.00;;;;;;;;;;5073784;28;20045;-68
2022/05/03 14:13:47;;;;;;;7.28;2.33;;;;;;;;;;5072970;28;20123;-68
2022/05/03 14:16:16;;;;;;;25.20;5.47;;;;;;;;;;5072969;28;20049;-64
2022/05/03 14:18:42;;;;;;;11.13;2.88;;;;;;;;;;5078438;28;20098;-65
2022/05/03 14:21:08;;;;;;;13.27;3.70;;;;;;;;;;5083354;28;20770;-67
2022/05/03 14:23:35;;;;;;;6.38;2.80;;;;;;;;;;5087973;28;20032;-69
2022/05/03 14:26:01;;;;;;;11.18;2.60;;;;;;;;;;5091256;28;20512;-67
2022/05/03 14:28:27;;;;;;;10.10;2.72;;;;;;;;;;5078310;28;20040;-67
2022/05/03 14:30:54;;;;;;;5.93;2.60;;;;;;;;;;5073328;28;20045;-67
2022/05/03 14:33:20;;;;;;;9.48;2.80;;;;;;;;;;5073121;28;20036;-66
2022/05/03 14:35:46;;;;;;;8.13;2.45;;;;;;;;;;5072988;28;20047;-67
2022/05/03 14:38:12;;;;;;;9.70;2.90;;;;;;;;;;5106234;28;20094;-67
2022/05/03 14:40:38;;;;;;;9.98;3.78;;;;;;;;;;5093088;28;20040;-67
2022/05/03 14:43:06;;;;;;;12.00;3.15;;;;;;;;;;5073382;28;20044;-67
2022/05/03 14:45:32;;;;;;;10.98;3.20;;;;;;;;;;5076546;28;20051;-67
2022/05/03 14:47:59;;;;;;;11.40;3.30;;;;;;;;;;5085214;28;20042;-67
2022/05/03 14:50:25;;;;;;;17.08;4.45;;;;;;;;;;5093223;28;20174;-67
2022/05/03 14:52:52;;;;;;;13.18;3.20;;;;;;;;;;5087325;28;20454;-67
2022/05/03 14:55:18;;;;;;;12.38;3.80;;;;;;;;;;5090121;28;20115;-67
2022/05/03 15:03:13;;;;;;;19.92;4.90;;;;;;;;;;5084937;28;20040;-68
2022/05/03 15:05:40;;;;;;;7.30;2.30;;;;;;;;;;5087795;28;20043;-67
2022/05/03 15:08:09;;;;;;;10.07;3.70;;;;;;;;;;5084275;28;20733;-67
2022/05/03 15:10:36;;;;;;;47.45;8.20;;;;;;;;;;5089794;28;20117;-67
2022/05/03 15:13:04;;;;;;;18.73;4.50;;;;;;;;;;5090544;28;20036;-66
2022/05/03 15:15:30;;;;;;;9.88;2.70;;;;;;;;;;5087279;28;20543;-66
2022/05/03 15:17:56;;;;;;;5.40;2.47;;;;;;;;;;5085259;28;20089;-66
2022/05/03 15:20:23;;;;;;;10.55;2.92;;;;;;;;;;5086245;28;20043;-67
2022/05/03 15:25:34;;;;;;;7.38;2.30;;;;;;;;;;5085741;28;20044;-67